Time;durP1;ratioP1;P1;durP2;ratioP2;P2;SDS_P1;SDS_P2;PMS_P1;PMS_P2;Temp;Humidity;BMP_temperature;BMP_pressure;BME280_temperature;BME280_humidity;BME280_pressure;Samples;Min_cycle;Max_cycle;Signal;HPM_P1;HPM_P2
2022/12/07 00:02:50;;;;;;;4.03;2.55;;;;;;;;;;10045249;29;20688;-86
2022/12/07 00:07:54;;;;;;;4.03;2.63;;;;;;;;;;10025303;29;20050;-86
2022/12/07 00:12:57;;;;;;;3.28;2.50;;;;;;;;;;10024628;29;20073;-86
2022/12/07 00:18:02;;;;;;;6.88;3.70;;;;;;;;;;10023712;29;20060;-86
2022/12/07 00:23:05;;;;;;;4.10;3.00;;;;;;;;;;10031060;29;20056;-86
2022/12/07 00:28:10;;;;;;;2.97;2.20;;;;;;;;;;10022103;29;20133;-86
2022/12/07 00:33:15;;;;;;;3.55;2.13;;;;;;;;;;10030443;29;20053;-86
2022/12/07 00:38:19;;;;;;;2.65;2.20;;;;;;;;;;10023533;29;20254;-86
2022/12/07 00:43:22;;;;;;;3.95;2.80;;;;;;;;;;10024207;29;20057;-86
2022/12/07 00:48:27;;;;;;;3.92;2.63;;;;;;;;;;10023349;29;20045;-86
2022/12/07 00:53:31;;;;;;;3.17;2.20;;;;;;;;;;10068477;29;20051;-91
2022/12/07 00:58:37;;;;;;;3.80;2.38;;;;;;;;;;10073472;29;20148;-89
2022/12/07 01:03:42;;;;;;;3.03;2.20;;;;;;;;;;10066177;29;20113;-88
2022/12/07 01:08:48;;;;;;;4.35;2.38;;;;;;;;;;10054910;29;20053;-90
2022/12/07 01:13:51;;;;;;;2.40;1.93;;;;;;;;;;10059294;29;20093;-90
2022/12/07 01:18:58;;;;;;;2.42;1.90;;;;;;;;;;10044767;29;20158;-87
2022/12/07 01:24:02;;;;;;;2.47;1.90;;;;;;;;;;10040630;29;20049;-89
2022/12/07 01:29:06;;;;;;;3.38;1.95;;;;;;;;;;10050135;29;20061;-90
2022/12/07 01:34:11;;;;;;;2.15;1.80;;;;;;;;;;10049249;29;20271;-88
2022/12/07 01:39:16;;;;;;;2.20;1.60;;;;;;;;;;10050510;29;20445;-88
2022/12/07 01:44:23;;;;;;;2.70;1.80;;;;;;;;;;10049193;29;20062;-90
2022/12/07 01:49:32;;;;;;;2.67;2.20;;;;;;;;;;10075312;29;20081;-88
2022/12/07 01:54:36;;;;;;;2.08;1.52;;;;;;;;;;10034547;29;20084;-90
2022/12/07 01:59:40;;;;;;;1.77;1.50;;;;;;;;;;10034112;29;20060;-88
2022/12/07 02:04:48;;;;;;;2.75;1.80;;;;;;;;;;10033543;29;20088;-89
2022/12/07 02:09:51;;;;;;;2.85;2.05;;;;;;;;;;10050391;29;20677;-87
2022/12/07 02:14:55;;;;;;;3.30;2.58;;;;;;;;;;10051438;29;20049;-91
2022/12/07 02:20:14;;;;;;;4.88;3.75;;;;;;;;;;10071739;29;20064;-89
2022/12/07 02:25:28;;;;;;;3.75;2.50;;;;;;;;;;10094135;29;20585;-90
2022/12/07 02:30:35;;;;;;;4.70;2.80;;;;;;;;;;10063361;29;20533;-86
2022/12/07 02:35:42;;;;;;;3.38;2.42;;;;;;;;;;10201942;23;20057;-82
2022/12/07 02:40:50;;;;;;;3.55;2.53;;;;;;;;;;10038797;29;20136;-83
2022/12/07 02:46:00;;;;;;;3.75;2.70;;;;;;;;;;10037410;29;20057;-83
2022/12/07 02:51:03;;;;;;;4.38;3.08;;;;;;;;;;10039783;29;20061;-82
2022/12/07 02:56:12;;;;;;;3.30;2.70;;;;;;;;;;10038948;29;20079;-81
2022/12/07 03:01:27;;;;;;;4.82;3.05;;;;;;;;;;10041283;29;20140;-84
2022/12/07 03:06:35;;;;;;;7.97;4.83;;;;;;;;;;10050987;29;20146;-83
2022/12/07 03:11:47;;;;;;;6.22;3.70;;;;;;;;;;10051305;29;20061;-83
2022/12/07 03:16:56;;;;;;;4.57;3.25;;;;;;;;;;10052214;29;20070;-83
2022/12/07 03:22:03;;;;;;;11.45;7.65;;;;;;;;;;10021273;29;20061;-82
2022/12/07 03:27:12;;;;;;;8.70;5.47;;;;;;;;;;10027745;29;20536;-82
2022/12/07 03:32:21;;;;;;;7.32;4.70;;;;;;;;;;10036129;29;20125;-81
2022/12/07 03:37:32;;;;;;;9.55;6.20;;;;;;;;;;10037205;29;20068;-82
2022/12/07 03:42:36;;;;;;;7.13;5.05;;;;;;;;;;10037006;29;20060;-82
2022/12/07 03:47:48;;;;;;;8.50;5.93;;;;;;;;;;10024266;29;20160;-83
2022/12/07 03:52:57;;;;;;;12.98;8.30;;;;;;;;;;10042721;29;20064;-83
2022/12/07 03:58:04;;;;;;;10.05;7.22;;;;;;;;;;10035027;29;20054;-82
2022/12/07 04:03:09;;;;;;;7.38;5.00;;;;;;;;;;10035267;29;20049;-82
2022/12/07 04:08:12;;;;;;;6.65;4.78;;;;;;;;;;10019774;29;20077;-83
2022/12/07 04:13:16;;;;;;;5.70;3.85;;;;;;;;;;10035089;29;20317;-82
2022/12/07 04:18:20;;;;;;;4.30;3.28;;;;;;;;;;10034829;29;20140;-81
2022/12/07 04:23:24;;;;;;;5.53;4.22;;;;;;;;;;10035013;29;20060;-81
2022/12/07 04:28:27;;;;;;;5.03;3.38;;;;;;;;;;10018532;29;20053;-82
2022/12/07 04:33:32;;;;;;;5.15;3.47;;;;;;;;;;10044177;29;20061;-81
2022/12/07 04:38:35;;;;;;;4.45;2.85;;;;;;;;;;10036250;29;20061;-82
2022/12/07 04:43:39;;;;;;;10.23;5.53;;;;;;;;;;10056206;29;20053;-83
2022/12/07 04:48:44;;;;;;;5.90;4.20;;;;;;;;;;10065598;29;20053;-82
2022/12/07 04:53:47;;;;;;;6.03;3.75;;;;;;;;;;10029743;29;20145;-79
2022/12/07 04:58:52;;;;;;;4.95;3.45;;;;;;;;;;10029773;29;20108;-80
2022/12/07 05:03:56;;;;;;;6.07;4.60;;;;;;;;;;10031472;29;20049;-82
2022/12/07 05:09:00;;;;;;;8.95;6.18;;;;;;;;;;10031101;29;20668;-82
2022/12/07 05:14:05;;;;;;;11.75;7.88;;;;;;;;;;10044143;29;20056;-81
2022/12/07 05:19:10;;;;;;;7.65;5.28;;;;;;;;;;10039618;29;20112;-81
2022/12/07 05:24:16;;;;;;;5.47;3.70;;;;;;;;;;10031390;29;20108;-81
2022/12/07 05:29:20;;;;;;;8.97;5.90;;;;;;;;;;10015426;29;20057;-80
2022/12/07 05:34:25;;;;;;;6.82;3.53;;;;;;;;;;10031629;29;20054;-82
2022/12/07 05:39:28;;;;;;;4.13;2.78;;;;;;;;;;10019457;29;20058;-84
2022/12/07 05:44:31;;;;;;;4.72;3.28;;;;;;;;;;10027347;29;20422;-80
2022/12/07 05:49:36;;;;;;;3.33;2.58;;;;;;;;;;10016390;29;20057;-81
2022/12/07 05:54:39;;;;;;;2.50;2.00;;;;;;;;;;10041745;29;20057;-82
2022/12/07 05:59:43;;;;;;;3.38;2.53;;;;;;;;;;10041232;29;20055;-83
2022/12/07 06:04:48;;;;;;;3.00;2.40;;;;;;;;;;10048348;29;20049;-82
2022/12/07 06:09:52;;;;;;;3.35;2.42;;;;;;;;;;10052515;29;20049;-84
2022/12/07 06:14:55;;;;;;;5.35;3.63;;;;;;;;;;10050084;29;20046;-85
2022/12/07 06:20:00;;;;;;;3.53;2.60;;;;;;;;;;10050418;29;20057;-84
2022/12/07 06:25:05;;;;;;;5.32;3.90;;;;;;;;;;10036102;29;20052;-83
2022/12/07 06:30:11;;;;;;;6.28;4.60;;;;;;;;;;10056976;29;20057;-81
2022/12/07 06:35:16;;;;;;;7.70;4.93;;;;;;;;;;10041907;29;20054;-83
2022/12/07 06:40:19;;;;;;;7.32;4.57;;;;;;;;;;10026981;29;20615;-81
2022/12/07 06:45:23;;;;;;;7.43;4.88;;;;;;;;;;10025811;29;20557;-82
2022/12/07 06:50:28;;;;;;;5.63;3.45;;;;;;;;;;10032346;29;20050;-82
2022/12/07 06:55:31;;;;;;;4.28;3.17;;;;;;;;;;10043414;29;20056;-81
2022/12/07 07:00:35;;;;;;;6.05;4.35;;;;;;;;;;10043297;29;20049;-82
2022/12/07 07:05:40;;;;;;;8.15;5.50;;;;;;;;;;10033869;29;20054;-81
2022/12/07 07:10:44;;;;;;;5.55;4.15;;;;;;;;;;10037479;29;20752;-82
2022/12/07 07:15:48;;;;;;;7.10;4.68;;;;;;;;;;10021756;29;20212;-82
2022/12/07 07:20:53;;;;;;;6.88;4.65;;;;;;;;;;10038341;29;20139;-82
2022/12/07 07:25:56;;;;;;;7.75;5.00;;;;;;;;;;10037594;29;20081;-82
2022/12/07 07:31:00;;;;;;;4.28;3.22;;;;;;;;;;10045442;29;20067;-83
2022/12/07 07:36:06;;;;;;;4.43;3.10;;;;;;;;;;10038473;29;20046;-84
2022/12/07 07:41:09;;;;;;;5.37;2.73;;;;;;;;;;10051294;29;20057;-83
2022/12/07 07:46:12;;;;;;;3.83;3.13;;;;;;;;;;10046798;29;20766;-85
2022/12/07 07:51:17;;;;;;;3.97;2.35;;;;;;;;;;10049005;29;20060;-84
2022/12/07 07:56:20;;;;;;;4.22;2.70;;;;;;;;;;10029567;29;20050;-83
2022/12/07 08:01:24;;;;;;;4.78;3.20;;;;;;;;;;10051188;29;20557;-83
2022/12/07 08:06:29;;;;;;;4.10;2.85;;;;;;;;;;10040559;29;20052;-83
2022/12/07 08:11:34;;;;;;;4.25;2.88;;;;;;;;;;10046308;29;20584;-85
2022/12/07 08:16:38;;;;;;;3.65;2.42;;;;;;;;;;10036160;29;20063;-84
2022/12/07 08:21:43;;;;;;;3.38;2.67;;;;;;;;;;10038708;29;20105;-84
2022/12/07 08:26:46;;;;;;;3.40;1.95;;;;;;;;;;10036432;29;20054;-83
2022/12/07 08:31:50;;;;;;;4.38;2.65;;;;;;;;;;10014261;29;20060;-82
2022/12/07 08:36:54;;;;;;;3.05;2.40;;;;;;;;;;10032210;29;20109;-82
2022/12/07 08:41:58;;;;;;;5.25;3.33;;;;;;;;;;10030978;29;20252;-81
2022/12/07 08:47:05;;;;;;;4.65;3.55;;;;;;;;;;10018509;29;20041;-81
2022/12/07 08:52:10;;;;;;;5.18;3.58;;;;;;;;;;10028965;29;20080;-83
2022/12/07 08:57:13;;;;;;;8.30;5.43;;;;;;;;;;10036475;29;20148;-82
2022/12/07 09:02:16;;;;;;;5.45;3.33;;;;;;;;;;10035364;29;20053;-82
2022/12/07 09:07:21;;;;;;;3.63;2.95;;;;;;;;;;10021336;29;20437;-82
2022/12/07 09:12:24;;;;;;;6.78;4.22;;;;;;;;;;10035737;29;20077;-81
2022/12/07 09:17:28;;;;;;;3.88;3.03;;;;;;;;;;10033941;29;20165;-81
2022/12/07 09:22:33;;;;;;;4.45;2.88;;;;;;;;;;10040015;29;20060;-82
2022/12/07 09:27:36;;;;;;;4.05;2.35;;;;;;;;;;10038504;29;20113;-81
2022/12/07 09:32:40;;;;;;;8.13;5.22;;;;;;;;;;10037156;29;20140;-83
2022/12/07 09:37:44;;;;;;;21.55;12.15;;;;;;;;;;10034643;29;20140;-81
2022/12/07 09:42:51;;;;;;;12.27;6.82;;;;;;;;;;10037231;29;20046;-82
2022/12/07 09:47:54;;;;;;;6.20;3.58;;;;;;;;;;10022434;29;20252;-82
2022/12/07 09:53:08;;;;;;;4.50;2.65;;;;;;;;;;10024069;29;20247;-84
2022/12/07 09:58:21;;;;;;;4.97;3.33;;;;;;;;;;10020701;29;20057;-83
2022/12/07 10:03:24;;;;;;;5.55;3.22;;;;;;;;;;10038987;29;20153;-83
2022/12/07 10:08:29;;;;;;;5.18;3.45;;;;;;;;;;10039077;29;20140;-83
2022/12/07 10:13:36;;;;;;;7.18;3.92;;;;;;;;;;10042966;29;20088;-83
2022/12/07 10:18:41;;;;;;;6.50;4.00;;;;;;;;;;10048159;29;20271;-83
2022/12/07 10:24:02;;;;;;;5.00;2.95;;;;;;;;;;10041834;29;20057;-83
2022/12/07 10:29:17;;;;;;;7.95;3.78;;;;;;;;;;10017960;29;20141;-84
2022/12/07 10:34:25;;;;;;;4.10;2.57;;;;;;;;;;10046924;29;20058;-82
2022/12/07 10:39:30;;;;;;;4.13;2.75;;;;;;;;;;10055179;29;20148;-82
2022/12/07 10:44:35;;;;;;;4.07;2.77;;;;;;;;;;10056736;29;20057;-83
2022/12/07 10:50:30;;;;;;;4.78;2.30;;;;;;;;;;10035762;29;20137;-83
2022/12/07 10:55:49;;;;;;;2.50;2.30;;;;;;;;;;10010188;29;20077;-83
2022/12/07 11:00:59;;;;;;;2.13;1.88;;;;;;;;;;10052093;29;20059;-82
2022/12/07 11:06:16;;;;;;;3.97;2.40;;;;;;;;;;10044637;29;20064;-81
2022/12/07 11:11:30;;;;;;;3.30;2.38;;;;;;;;;;10051198;29;20057;-82
2022/12/07 11:16:57;;;;;;;6.55;2.97;;;;;;;;;;10060183;29;20049;-82
2022/12/07 11:22:04;;;;;;;4.50;2.30;;;;;;;;;;10052392;29;20125;-82
2022/12/07 11:27:20;;;;;;;2.78;2.10;;;;;;;;;;10049503;29;20330;-84
2022/12/07 11:32:39;;;;;;;5.03;2.60;;;;;;;;;;10042821;29;20064;-83
2022/12/07 11:37:58;;;;;;;3.88;1.80;;;;;;;;;;10038493;29;20266;-83
2022/12/07 11:43:08;;;;;;;3.38;1.90;;;;;;;;;;10076578;29;20059;-88
2022/12/07 11:48:15;;;;;;;3.17;1.55;;;;;;;;;;10082608;29;20068;-88
2022/12/07 11:53:21;;;;;;;1.90;1.30;;;;;;;;;;10055213;29;20103;-87
2022/12/07 11:58:41;;;;;;;3.97;1.83;;;;;;;;;;10055063;29;20058;-87
2022/12/07 12:03:48;;;;;;;2.67;1.35;;;;;;;;;;10054489;29;20493;-88
2022/12/07 12:08:58;;;;;;;5.72;2.60;;;;;;;;;;10054283;29;20499;-88
2022/12/07 12:14:49;;;;;;;3.88;2.15;;;;;;;;;;10054073;29;20152;-87
2022/12/07 12:20:04;;;;;;;5.90;2.08;;;;;;;;;;10053965;29;20061;-87
2022/12/07 12:25:18;;;;;;;7.15;3.03;;;;;;;;;;10053811;29;20057;-87
2022/12/07 12:30:33;;;;;;;2.70;2.05;;;;;;;;;;10052370;29;20517;-87
2022/12/07 12:35:42;;;;;;;4.80;2.03;;;;;;;;;;10017919;29;20057;-85
2022/12/07 12:40:45;;;;;;;;;;;;;;;;;;10031355;29;20041;-85
2022/12/07 12:46:33;;;;;;;5.43;1.92;;;;;;;;;;10025028;29;19967;-87
2022/12/07 12:51:43;;;;;;;2.88;1.80;;;;;;;;;;10015982;29;20069;-85
2022/12/07 12:56:52;;;;;;;1.67;0.98;;;;;;;;;;10024455;29;20454;-85
2022/12/07 13:02:07;;;;;;;4.30;0.90;;;;;;;;;;10022682;29;20049;-86
2022/12/07 13:07:53;;;;;;;3.22;1.20;;;;;;;;;;10025162;29;20057;-86
2022/12/07 13:12:58;;;;;;;0.88;0.70;;;;;;;;;;10030742;29;20060;-85
2022/12/07 13:18:05;;;;;;;2.25;0.70;;;;;;;;;;10023042;29;20236;-85
2022/12/07 13:23:11;;;;;;;2.22;0.93;;;;;;;;;;10037372;29;20049;-87
2022/12/07 13:28:17;;;;;;;1.83;0.70;;;;;;;;;;10051270;29;20058;-90
2022/12/07 13:33:21;;;;;;;1.63;0.90;;;;;;;;;;10051694;29;20509;-88
2022/12/07 13:38:29;;;;;;;2.00;1.23;;;;;;;;;;10051084;29;20137;-88
2022/12/07 13:43:43;;;;;;;4.07;2.45;;;;;;;;;;10050443;29;20065;-90
2022/12/07 13:48:48;;;;;;;2.58;1.20;;;;;;;;;;10051214;29;20109;-88
2022/12/07 13:53:55;;;;;;;2.63;1.02;;;;;;;;;;10051478;29;20142;-89
2022/12/07 13:58:59;;;;;;;1.48;0.88;;;;;;;;;;10051530;29;20085;-87
2022/12/07 14:04:34;;;;;;;1.80;0.90;;;;;;;;;;10051234;29;20058;-87
2022/12/07 14:09:39;;;;;;;2.67;1.45;;;;;;;;;;10050447;29;20110;-87
2022/12/07 14:14:49;;;;;;;1.88;1.10;;;;;;;;;;10057484;29;20080;-92
2022/12/07 14:19:54;;;;;;;1.35;0.88;;;;;;;;;;10058230;29;20082;-89
2022/12/07 14:25:00;;;;;;;;;;;;;;;;;;10058325;29;20335;-89
2022/12/07 14:30:06;;;;;;;1.25;0.70;;;;;;;;;;10057390;29;19924;-92
2022/12/07 14:35:13;;;;;;;1.10;0.70;;;;;;;;;;10041568;29;20064;-86
2022/12/07 14:40:22;;;;;;;1.20;0.60;;;;;;;;;;10029765;29;20077;-86
2022/12/07 14:45:25;;;;;;;0.50;0.50;;;;;;;;;;10029439;29;20140;-86
2022/12/07 14:50:29;;;;;;;0.85;0.80;;;;;;;;;;10014613;29;20132;-86
2022/12/07 14:55:34;;;;;;;1.38;0.50;;;;;;;;;;10027600;29;20169;-85
2022/12/07 15:00:38;;;;;;;0.57;0.47;;;;;;;;;;10027968;29;20130;-86
2022/12/07 15:05:42;;;;;;;0.57;0.57;;;;;;;;;;10011641;29;20475;-86
2022/12/07 15:10:47;;;;;;;3.53;0.70;;;;;;;;;;10028503;29;20084;-86
2022/12/07 15:15:52;;;;;;;2.60;1.58;;;;;;;;;;10028683;29;20053;-86
2022/12/07 15:20:56;;;;;;;3.33;1.20;;;;;;;;;;10027971;29;20109;-85
2022/12/07 15:26:00;;;;;;;1.42;1.02;;;;;;;;;;10029573;29;20084;-87
2022/12/07 15:31:04;;;;;;;1.65;1.25;;;;;;;;;;10034911;29;20045;-87
2022/12/07 15:36:21;;;;;;;2.00;1.33;;;;;;;;;;10049575;29;20068;-90
2022/12/07 15:41:26;;;;;;;1.60;1.30;;;;;;;;;;10056903;29;20053;-91
2022/12/07 15:46:34;;;;;;;1.60;1.17;;;;;;;;;;10056368;29;20086;-88
2022/12/07 15:51:37;;;;;;;2.10;1.23;;;;;;;;;;10055575;29;20054;-90
2022/12/07 15:56:43;;;;;;;1.67;1.58;;;;;;;;;;10055530;29;20061;-87
2022/12/07 16:01:46;;;;;;;2.33;2.07;;;;;;;;;;10055908;29;20084;-88
2022/12/07 16:06:51;;;;;;;4.65;2.50;;;;;;;;;;10055791;29;20148;-88
2022/12/07 16:11:56;;;;;;;3.45;2.22;;;;;;;;;;10054896;29;20148;-88
2022/12/07 16:16:59;;;;;;;3.40;2.20;;;;;;;;;;10052744;29;20533;-87
2022/12/07 16:22:04;;;;;;;5.18;3.20;;;;;;;;;;10045343;29;20081;-87
2022/12/07 16:27:09;;;;;;;4.85;3.08;;;;;;;;;;10053563;29;20060;-89
2022/12/07 16:32:13;;;;;;;5.53;3.38;;;;;;;;;;10053836;29;20049;-87
2022/12/07 16:37:17;;;;;;;7.10;4.50;;;;;;;;;;10053101;29;20129;-88
2022/12/07 16:42:21;;;;;;;6.28;3.88;;;;;;;;;;10038314;29;20514;-91
2022/12/07 16:47:25;;;;;;;8.63;4.72;;;;;;;;;;10052760;29;20534;-88
2022/12/07 16:52:28;;;;;;;12.23;7.18;;;;;;;;;;10075743;29;20062;-91
2022/12/07 16:57:33;;;;;;;8.30;5.38;;;;;;;;;;10033056;29;20513;-87
2022/12/07 17:02:37;;;;;;;6.93;3.85;;;;;;;;;;10056620;29;20053;-88
2022/12/07 17:07:40;;;;;;;6.50;3.95;;;;;;;;;;10051587;29;20144;-88
2022/12/07 17:12:45;;;;;;;7.32;4.18;;;;;;;;;;10036280;29;20145;-89
2022/12/07 17:17:54;;;;;;;5.60;3.53;;;;;;;;;;10050258;29;20139;-87
2022/12/07 17:22:57;;;;;;;6.95;4.00;;;;;;;;;;10059314;29;20060;-87
2022/12/07 17:28:03;;;;;;;7.80;5.07;;;;;;;;;;10043452;29;20485;-88
2022/12/07 17:33:06;;;;;;;10.27;5.30;;;;;;;;;;10058813;29;20046;-87
2022/12/07 17:38:09;;;;;;;10.52;5.82;;;;;;;;;;10042654;29;20140;-88
2022/12/07 17:43:14;;;;;;;8.18;5.10;;;;;;;;;;10060098;29;20056;-88
2022/12/07 17:48:18;;;;;;;5.88;3.60;;;;;;;;;;10050072;29;20572;-88
2022/12/07 17:53:21;;;;;;;5.18;2.97;;;;;;;;;;10045232;29;20060;-87
2022/12/07 17:58:26;;;;;;;4.38;2.85;;;;;;;;;;10055573;29;20126;-86
2022/12/07 18:03:30;;;;;;;7.60;4.20;;;;;;;;;;10057241;29;20050;-88
2022/12/07 18:08:37;;;;;;;6.85;3.80;;;;;;;;;;10054230;29;20105;-87
2022/12/07 18:13:42;;;;;;;4.63;3.20;;;;;;;;;;10079883;29;20049;-93
2022/12/07 18:18:47;;;;;;;5.45;3.28;;;;;;;;;;10083185;29;20057;-86
2022/12/07 18:24:03;;;;;;;5.85;3.13;;;;;;;;;;10050774;29;20072;-88
2022/12/07 18:29:10;;;;;;;4.00;2.35;;;;;;;;;;10049824;29;20056;-84
2022/12/07 18:34:18;;;;;;;2.70;1.95;;;;;;;;;;10042968;29;20053;-84
2022/12/07 18:39:21;;;;;;;3.30;1.90;;;;;;;;;;10025092;29;20061;-83
2022/12/07 18:44:26;;;;;;;3.53;2.17;;;;;;;;;;10040788;29;20054;-83
2022/12/07 18:49:29;;;;;;;4.63;2.25;;;;;;;;;;10043029;29;20050;-83
2022/12/07 18:54:32;;;;;;;3.97;2.33;;;;;;;;;;10044589;29;20056;-83
2022/12/07 18:59:48;;;;;;;2.20;1.75;;;;;;;;;;10050311;29;20433;-83
2022/12/07 19:04:51;;;;;;;2.43;2.00;;;;;;;;;;10052145;29;20149;-83
2022/12/07 19:09:55;;;;;;;3.30;1.60;;;;;;;;;;10056217;29;20494;-85
2022/12/07 19:15:00;;;;;;;2.67;1.50;;;;;;;;;;10062381;29;20129;-85
2022/12/07 19:20:05;;;;;;;3.00;1.67;;;;;;;;;;10048862;29;20144;-88
2022/12/07 19:25:09;;;;;;;9.13;4.53;;;;;;;;;;10053154;29;20107;-88
2022/12/07 19:30:15;;;;;;;5.10;2.65;;;;;;;;;;10039379;29;20169;-85
2022/12/07 19:35:19;;;;;;;3.33;2.30;;;;;;;;;;10052741;29;20148;-89
2022/12/07 19:40:22;;;;;;;6.10;3.15;;;;;;;;;;10040595;29;20061;-85
2022/12/07 19:45:28;;;;;;;7.60;4.38;;;;;;;;;;10048411;29;20311;-86
2022/12/07 19:50:31;;;;;;;12.67;4.97;;;;;;;;;;10058742;29;20085;-85
2022/12/07 19:55:39;;;;;;;6.18;2.83;;;;;;;;;;10050625;29;20049;-87
2022/12/07 20:00:46;;;;;;;9.75;4.28;;;;;;;;;;10051600;29;20049;-87
2022/12/07 20:05:50;;;;;;;8.70;3.90;;;;;;;;;;10048567;29;20081;-85
2022/12/07 20:10:53;;;;;;;5.50;3.00;;;;;;;;;;10046878;29;20045;-87
2022/12/07 20:16:02;;;;;;;2.65;2.15;;;;;;;;;;10026951;29;20662;-85
2022/12/07 20:21:21;;;;;;;4.72;3.38;;;;;;;;;;10065495;29;20064;-87
2022/12/07 20:26:24;;;;;;;6.78;3.90;;;;;;;;;;10064549;29;20073;-88
2022/12/07 20:31:29;;;;;;;8.90;4.65;;;;;;;;;;10041194;29;20552;-84
2022/12/07 20:36:33;;;;;;;5.95;3.63;;;;;;;;;;10043243;29;20092;-89
2022/12/07 20:47:01;;;;;;;6.40;3.38;;;;;;;;;;10053015;29;20053;-85
2022/12/07 20:52:04;;;;;;;6.28;3.38;;;;;;;;;;10051971;29;20077;-85
2022/12/07 20:57:08;;;;;;;8.38;4.10;;;;;;;;;;10068263;29;20053;-86
2022/12/07 21:02:14;;;;;;;7.38;4.20;;;;;;;;;;10074853;29;20057;-87
2022/12/07 21:07:17;;;;;;;4.97;2.97;;;;;;;;;;10057664;29;20394;-85
2022/12/07 21:12:21;;;;;;;8.05;4.47;;;;;;;;;;10055735;29;20148;-88
2022/12/07 21:17:27;;;;;;;8.65;4.07;;;;;;;;;;10035733;29;20344;-87
2022/12/07 21:22:31;;;;;;;5.40;3.47;;;;;;;;;;10033815;29;20053;-89
2022/12/07 21:27:35;;;;;;;10.27;5.10;;;;;;;;;;10021780;29;20335;-87
2022/12/07 21:32:41;;;;;;;7.45;4.30;;;;;;;;;;10044804;29;20582;-87
2022/12/07 21:37:44;;;;;;;6.53;3.70;;;;;;;;;;10037674;29;20057;-91
2022/12/07 21:42:51;;;;;;;7.63;3.63;;;;;;;;;;10064043;29;20460;-86
2022/12/07 21:47:55;;;;;;;3.53;2.63;;;;;;;;;;10031478;29;20069;-88
2022/12/07 21:52:59;;;;;;;4.35;2.70;;;;;;;;;;10034887;29;20049;-87
2022/12/07 21:58:03;;;;;;;5.25;3.15;;;;;;;;;;10009081;29;20510;-84
2022/12/07 22:03:12;;;;;;;9.85;4.53;;;;;;;;;;10025496;29;20065;-84
2022/12/07 22:08:16;;;;;;;8.65;4.78;;;;;;;;;;10021817;29;20558;-84
2022/12/07 22:13:20;;;;;;;7.75;4.80;;;;;;;;;;10011908;29;20324;-84
2022/12/07 22:18:25;;;;;;;5.68;3.83;;;;;;;;;;10017786;29;20053;-84
2022/12/07 22:23:31;;;;;;;9.75;5.30;;;;;;;;;;10033943;29;20413;-86
2022/12/07 22:28:36;;;;;;;7.10;4.82;;;;;;;;;;10034366;29;20037;-86
2022/12/07 22:33:42;;;;;;;5.82;2.95;;;;;;;;;;10053267;29;20140;-85
2022/12/07 22:38:46;;;;;;;4.78;3.30;;;;;;;;;;10036075;29;20109;-86
2022/12/07 22:43:49;;;;;;;4.22;2.80;;;;;;;;;;10045387;29;20192;-83
2022/12/07 22:48:55;;;;;;;3.75;2.85;;;;;;;;;;10028558;29;20053;-84
2022/12/07 22:53:59;;;;;;;3.58;2.20;;;;;;;;;;10027700;29;20081;-83
2022/12/07 22:59:03;;;;;;;4.25;1.98;;;;;;;;;;10037368;29;20080;-83
2022/12/07 23:04:09;;;;;;;5.00;2.65;;;;;;;;;;10031735;29;20080;-86
2022/12/07 23:09:13;;;;;;;2.80;2.13;;;;;;;;;;10028857;29;20600;-89
2022/12/07 23:14:18;;;;;;;2.50;1.80;;;;;;;;;;10029986;29;20050;-89
2022/12/07 23:19:24;;;;;;;3.40;2.10;;;;;;;;;;10033663;29;20049;-87
2022/12/07 23:24:27;;;;;;;2.90;2.08;;;;;;;;;;10029400;29;20723;-84
2022/12/07 23:29:30;;;;;;;2.08;1.67;;;;;;;;;;10026354;29;20065;-85
2022/12/07 23:34:35;;;;;;;2.70;1.98;;;;;;;;;;10024851;29;20053;-84
2022/12/07 23:39:39;;;;;;;3.17;1.92;;;;;;;;;;10021474;29;20112;-85
2022/12/07 23:44:45;;;;;;;2.50;1.77;;;;;;;;;;10024570;29;20076;-85
2022/12/07 23:49:52;;;;;;;3.78;2.25;;;;;;;;;;10028953;29;20132;-92
2022/12/07 23:54:56;;;;;;;3.75;2.60;;;;;;;;;;10030920;29;20049;-84
2022/12/07 23:59:59;;;;;;;4.13;2.50;;;;;;;;;;10029880;29;20081;-86
